createdAt,value
2018-11-23T00:00:45.545Z,46.88
2018-11-23T00:03:13.539Z,48.38
2018-11-23T00:05:41.538Z,50.28
2018-11-23T00:08:09.533Z,48.38
2018-11-23T00:10:37.582Z,48.33
2018-11-23T00:13:05.569Z,49.10
2018-11-23T00:15:33.567Z,50.20
2018-11-23T00:18:01.535Z,49.58
2018-11-23T00:20:30.405Z,47.45
2018-11-23T00:22:58.448Z,47.45
2018-11-23T00:25:27.271Z,48.80
2018-11-23T00:27:55.831Z,47.55
2018-11-23T00:30:25.047Z,48.13
2018-11-23T00:32:53.505Z,48.35
2018-11-23T00:35:22.715Z,48.83
2018-11-23T00:37:51.498Z,47.10
2018-11-23T00:40:23.978Z,48.28
2018-11-23T00:42:52.250Z,47.23
2018-11-23T00:45:20.424Z,48.78
2018-11-23T00:47:49.004Z,48.95
2018-11-23T00:50:18.219Z,50.78
2018-11-23T00:52:46.582Z,49.20
2018-11-23T00:55:15.918Z,48.10
2018-11-23T00:57:44.146Z,46.50
2018-11-23T01:00:17.039Z,47.10
2018-11-23T01:02:45.282Z,49.00
2018-11-23T01:05:15.044Z,45.58
2018-11-23T01:07:43.503Z,46.68
2018-11-23T01:10:13.417Z,46.13
2018-11-23T01:12:42.006Z,48.15
2018-11-23T01:15:10.686Z,46.48
2018-11-23T01:17:38.848Z,47.58
2018-11-23T01:20:10.215Z,46.18
2018-11-23T01:22:38.783Z,44.75
2018-11-23T01:25:08.602Z,48.90
2018-11-23T01:27:36.577Z,45.58
2018-11-23T01:30:06.693Z,46.90
2018-11-23T01:32:34.666Z,48.48
2018-11-23T01:35:02.661Z,50.85
2018-11-23T01:37:30.658Z,50.28
2018-11-23T01:39:58.654Z,48.83
2018-11-23T01:42:26.646Z,49.42
2018-11-23T01:44:54.682Z,47.38
2018-11-23T01:47:22.977Z,48.28
2018-11-23T01:49:51.043Z,49.30
2018-11-23T01:52:19.013Z,52.00
2018-11-23T01:54:46.982Z,49.18
2018-11-23T01:57:14.952Z,50.70
2018-11-23T01:59:42.917Z,50.08
2018-11-23T02:02:11.086Z,49.35
2018-11-23T02:04:39.170Z,49.53
2018-11-23T02:07:07.429Z,49.50
2018-11-23T02:09:35.493Z,50.30
2018-11-23T02:12:03.517Z,50.63
2018-11-23T02:14:31.528Z,51.80
2018-11-23T02:16:59.539Z,50.38
2018-11-23T02:19:27.538Z,50.78
2018-11-23T02:21:55.546Z,51.37
2018-11-23T02:24:23.530Z,53.70
2018-11-23T02:26:51.533Z,53.25
2018-11-23T02:29:19.510Z,50.65
2018-11-23T02:31:47.574Z,51.35
2018-11-23T02:34:15.538Z,51.18
2018-11-23T02:36:43.528Z,52.83
2018-11-23T02:39:11.507Z,50.65
2018-11-23T02:41:39.521Z,50.43
2018-11-23T02:44:07.528Z,53.63
2018-11-23T02:46:35.559Z,53.15
2018-11-23T02:49:03.569Z,51.95
2018-11-23T02:51:31.575Z,52.00
2018-11-23T02:53:59.558Z,51.25
2018-11-23T02:56:37.870Z,52.75
2018-11-23T02:59:06.274Z,50.05
2018-11-23T03:01:34.257Z,52.78
2018-11-23T03:04:02.253Z,53.15
2018-11-23T03:06:30.249Z,53.28
2018-11-23T03:08:58.223Z,53.00
2018-11-23T03:11:26.202Z,51.00
2018-11-23T03:13:54.558Z,50.38
2018-11-23T03:16:22.536Z,52.30
2018-11-23T03:18:50.820Z,51.00
2018-11-23T03:21:18.884Z,52.65
2018-11-23T03:23:46.854Z,52.95
2018-11-23T03:26:14.873Z,50.28
2018-11-23T03:28:42.997Z,52.50
2018-11-23T03:31:12.380Z,53.70
2018-11-23T03:33:38.990Z,52.05
2018-11-23T03:36:06.982Z,52.98
2018-11-23T03:38:34.955Z,50.98
2018-11-23T03:41:02.988Z,52.75
2018-11-23T03:43:30.986Z,52.83
2018-11-23T03:45:58.982Z,54.77
2018-11-23T03:48:26.950Z,50.83
2018-11-23T03:50:54.921Z,54.15
2018-11-23T03:53:23.086Z,54.90
2018-11-23T03:55:51.069Z,52.03
2018-11-23T03:58:19.120Z,52.53
2018-11-23T04:00:47.109Z,53.00
2018-11-23T04:03:15.106Z,51.85
2018-11-23T04:05:43.076Z,53.60
2018-11-23T04:08:11.083Z,51.42
2018-11-23T04:10:39.062Z,49.35
2018-11-23T04:13:07.145Z,54.63
2018-11-23T04:15:35.176Z,56.68
2018-11-23T04:18:03.253Z,52.83
2018-11-23T04:20:31.205Z,51.37
2018-11-23T04:22:59.225Z,53.15
2018-11-23T04:25:27.231Z,52.30
2018-11-23T04:27:55.234Z,52.65
2018-11-23T04:30:23.251Z,51.35
2018-11-23T04:32:51.320Z,50.65
2018-11-23T04:35:19.773Z,52.40
2018-11-23T04:37:48.302Z,49.08
2018-11-23T04:40:17.254Z,50.63
2018-11-23T04:42:45.253Z,50.63
2018-11-23T04:45:13.808Z,52.43
2018-11-23T04:47:41.810Z,49.53
2018-11-23T04:50:11.483Z,50.55
2018-11-23T04:52:39.473Z,48.48
2018-11-23T04:55:08.343Z,51.42
2018-11-23T04:57:36.343Z,50.00
2018-11-23T05:00:05.412Z,54.42
2018-11-23T05:02:33.414Z,49.50
2018-11-23T05:05:01.450Z,48.90
2018-11-23T05:07:29.515Z,49.75
2018-11-23T05:09:57.490Z,49.20
2018-11-23T05:12:25.458Z,49.18
2018-11-23T05:14:53.453Z,51.37
2018-11-23T05:17:21.431Z,49.10
2018-11-23T05:19:49.440Z,50.00
2018-11-23T05:22:17.447Z,51.02
2018-11-23T05:24:45.446Z,52.73
2018-11-23T05:27:13.454Z,52.48
2018-11-23T05:29:41.454Z,49.40
2018-11-23T05:32:09.462Z,49.20
2018-11-23T05:34:37.466Z,52.83
2018-11-23T05:37:05.498Z,51.53
2018-11-23T05:39:33.518Z,50.10
2018-11-23T05:42:01.535Z,51.40
2018-11-23T05:44:29.534Z,51.05
2018-11-23T05:46:57.562Z,50.38
2018-11-23T05:49:25.546Z,50.50
2018-11-23T05:51:53.537Z,51.00
2018-11-23T05:54:21.542Z,50.85
2018-11-23T05:56:49.565Z,51.68
2018-11-23T05:59:17.537Z,48.95
2018-11-23T06:01:45.559Z,51.75
2018-11-23T06:04:13.578Z,48.80
2018-11-23T06:06:42.535Z,52.58
2018-11-23T06:09:09.600Z,51.20
2018-11-23T06:11:37.572Z,51.33
2018-11-23T06:14:05.554Z,51.23
2018-11-23T06:16:33.567Z,55.08
2018-11-23T06:19:01.571Z,52.00
2018-11-23T06:21:29.573Z,51.30
2018-11-23T06:23:57.556Z,49.65
2018-11-23T06:26:27.070Z,50.67
2018-11-23T06:28:55.075Z,48.87
2018-11-23T06:31:23.041Z,50.78
2018-11-23T06:33:51.174Z,51.42
2018-11-23T06:36:19.267Z,50.78
2018-11-23T06:38:47.297Z,50.80
2018-11-23T06:41:15.318Z,49.45
2018-11-23T06:43:43.330Z,49.03
2018-11-23T06:46:12.239Z,48.45
2018-11-23T06:48:40.261Z,49.40
2018-11-23T06:51:08.798Z,49.00
2018-11-23T06:53:36.803Z,49.93
2018-11-23T06:56:05.310Z,48.20
2018-11-23T06:58:33.352Z,47.45
2018-11-23T07:01:01.385Z,48.42
2018-11-23T07:03:29.367Z,48.20
2018-11-23T07:05:57.947Z,46.50
2018-11-23T07:08:26.225Z,46.08
2018-11-23T07:10:58.273Z,47.88
2018-11-23T07:13:26.877Z,47.13
2018-11-23T07:15:54.881Z,47.17
2018-11-23T07:18:22.880Z,47.62
2018-11-23T07:20:50.873Z,47.30
2018-11-23T07:23:18.905Z,46.02
2018-11-23T07:25:46.897Z,46.13
2018-11-23T07:28:15.632Z,47.98
2018-11-23T07:30:42.945Z,45.50
2018-11-23T07:33:10.972Z,46.80
2018-11-23T07:35:38.966Z,44.48
2018-11-23T07:38:07.059Z,47.33
2018-11-23T07:40:47.750Z,44.85
2018-11-23T07:43:15.774Z,44.65
2018-11-23T07:45:43.783Z,44.03
2018-11-23T07:48:11.783Z,44.00
2018-11-23T07:50:40.005Z,43.63
2018-11-23T07:53:08.384Z,45.30
2018-11-23T07:55:36.486Z,43.17
2018-11-23T07:58:05.477Z,44.98
2018-11-23T08:00:33.490Z,43.90
2018-11-23T08:03:01.479Z,44.70
2018-11-23T08:05:29.477Z,41.30
2018-11-23T08:07:57.486Z,43.13
2018-11-23T08:10:24.805Z,42.33
2018-11-23T08:12:53.057Z,43.73
2018-11-23T08:15:23.397Z,40.67
2018-11-23T08:17:51.417Z,43.48
2018-11-23T08:20:20.789Z,41.55
2018-11-23T08:22:48.815Z,43.90
2018-11-23T08:25:18.138Z,40.78
2018-11-23T08:27:47.212Z,40.52
2018-11-23T08:30:17.650Z,40.85
2018-11-23T08:32:45.817Z,41.73
2018-11-23T08:35:13.991Z,39.92
2018-11-23T08:37:42.021Z,42.40
2018-11-23T08:40:15.765Z,42.90
2018-11-23T08:42:45.068Z,43.60
2018-11-23T08:45:14.715Z,41.60
2018-11-23T08:47:42.714Z,39.78
2018-11-23T08:50:14.300Z,43.35
2018-11-23T08:52:42.464Z,40.50
2018-11-23T08:55:11.568Z,42.65
2018-11-23T08:57:39.958Z,41.23
2018-11-23T09:00:12.721Z,40.17
2018-11-23T09:02:41.090Z,40.17
2018-11-23T09:05:09.182Z,40.52
2018-11-23T09:07:37.162Z,38.20
2018-11-23T09:10:06.675Z,40.92
2018-11-23T09:12:34.680Z,39.48
2018-11-23T09:15:02.684Z,39.60
2018-11-23T09:17:30.674Z,40.00
2018-11-23T09:19:58.750Z,38.30
2018-11-23T09:22:26.775Z,38.30
2018-11-23T09:24:54.774Z,38.70
2018-11-23T09:27:22.758Z,37.08
2018-11-23T09:29:50.771Z,37.73
2018-11-23T09:32:18.863Z,37.70
2018-11-23T09:34:46.932Z,38.87
2018-11-23T09:37:14.908Z,37.23
2018-11-23T09:39:42.928Z,37.43
2018-11-23T09:42:10.897Z,36.28
2018-11-23T09:44:39.097Z,36.60
2018-11-23T09:47:10.244Z,36.30
2018-11-23T09:49:35.793Z,37.60
2018-11-23T09:52:03.802Z,37.93
2018-11-23T09:54:31.775Z,38.03
2018-11-23T09:56:59.788Z,39.03
2018-11-23T09:59:28.442Z,35.52
2018-11-23T10:01:57.340Z,36.57
2018-11-23T10:04:24.427Z,37.48
2018-11-23T10:09:26.782Z,37.23
2018-11-23T10:11:54.779Z,37.60
2018-11-23T10:14:22.927Z,36.87
2018-11-23T10:16:50.994Z,38.33
2018-11-23T10:19:28.531Z,36.63
2018-11-23T10:21:56.513Z,36.80
2018-11-23T10:24:24.505Z,37.43
2018-11-23T10:26:52.449Z,38.27
2018-11-23T10:29:20.580Z,36.95
2018-11-23T10:31:48.671Z,35.78
2018-11-23T10:34:17.022Z,38.28
2018-11-23T10:36:45.024Z,37.73
2018-11-23T10:39:13.431Z,36.03
2018-11-23T10:41:41.344Z,37.37
2018-11-23T10:44:09.329Z,33.70
2018-11-23T10:46:37.318Z,32.83
2018-11-23T10:49:05.623Z,32.77
2018-11-23T10:51:33.610Z,33.80
2018-11-23T10:54:01.646Z,35.07
2018-11-23T10:56:29.675Z,33.37
2018-11-23T10:58:57.709Z,34.10
2018-11-23T11:01:31.062Z,31.63
2018-11-23T11:04:11.255Z,32.70
2018-11-23T11:06:44.793Z,32.07
2018-11-23T11:09:12.841Z,33.77
2018-11-23T11:11:41.549Z,33.00
2018-11-23T11:14:09.540Z,33.30
2018-11-23T11:16:37.660Z,35.60
2018-11-23T11:19:06.067Z,32.50
2018-11-23T11:21:34.569Z,31.37
2018-11-23T11:24:02.798Z,33.90
2018-11-23T11:26:30.902Z,32.43
2018-11-23T11:28:59.021Z,32.90
2018-11-23T11:31:27.338Z,31.97
2018-11-23T11:33:55.387Z,32.83
2018-11-23T11:36:23.377Z,33.30
2018-11-23T11:38:51.457Z,31.27
2018-11-23T11:41:19.497Z,32.17
2018-11-23T11:43:47.480Z,32.30
2018-11-23T11:46:15.462Z,33.37
2018-11-23T11:48:43.456Z,32.70
2018-11-23T11:51:11.823Z,33.90
2018-11-23T11:53:39.802Z,33.17
2018-11-23T11:56:07.794Z,31.57
2018-11-23T11:58:35.765Z,33.53
2018-11-23T12:01:03.879Z,32.40
2018-11-23T12:03:31.946Z,34.13
2018-11-23T12:05:59.928Z,34.63
2018-11-23T12:08:27.900Z,34.60
2018-11-23T12:10:56.770Z,32.67
2018-11-23T12:13:23.973Z,34.23
2018-11-23T12:15:51.958Z,34.50
2018-11-23T12:18:20.160Z,35.40
2018-11-23T12:20:48.138Z,32.50
2018-11-23T12:23:16.140Z,33.17
2018-11-23T12:25:44.133Z,34.30
2018-11-23T12:28:12.238Z,31.03
2018-11-23T12:30:40.210Z,33.27
2018-11-23T12:33:08.201Z,33.70
2018-11-23T12:35:36.199Z,32.93
2018-11-23T12:38:04.297Z,33.70
2018-11-23T12:40:32.270Z,34.37
2018-11-23T12:43:00.257Z,34.53
2018-11-23T12:45:28.657Z,33.30
2018-11-23T12:47:56.665Z,34.90
2018-11-23T12:50:24.785Z,35.40
2018-11-23T12:52:52.812Z,37.77
2018-11-23T12:55:21.023Z,34.30
2018-11-23T12:57:49.041Z,32.77
2018-11-23T13:00:23.710Z,32.27
2018-11-23T13:02:53.139Z,33.00
2018-11-23T13:05:21.999Z,33.63
2018-11-23T13:07:50.720Z,32.90
2018-11-23T13:10:18.990Z,30.40
2018-11-23T13:12:54.240Z,33.63
2018-11-23T13:15:22.286Z,32.53
2018-11-23T13:17:50.291Z,33.60
2018-11-23T13:20:18.258Z,32.80
2018-11-23T13:22:46.224Z,33.40
2018-11-23T13:25:17.294Z,32.80
2018-11-23T13:27:45.307Z,34.33
2018-11-23T13:30:15.394Z,32.33
2018-11-23T13:32:43.723Z,32.20
2018-11-23T13:35:13.404Z,33.00
2018-11-23T13:37:41.697Z,32.70
2018-11-23T13:40:12.199Z,32.13
2018-11-23T13:42:40.150Z,32.90
2018-11-23T13:45:09.693Z,34.50
2018-11-23T13:47:37.685Z,32.70
2018-11-23T13:50:07.456Z,31.47
2018-11-23T13:52:35.438Z,32.47
2018-11-23T13:55:03.485Z,30.83
2018-11-23T13:57:31.493Z,31.13
2018-11-23T13:59:59.481Z,31.73
2018-11-23T14:02:27.464Z,32.67
2018-11-23T14:04:55.466Z,33.40
2018-11-23T14:07:23.454Z,33.97
2018-11-23T14:09:51.449Z,33.73
2018-11-23T14:12:19.456Z,32.97
2018-11-23T14:14:47.446Z,33.00
2018-11-23T14:17:15.425Z,33.70
2018-11-23T14:19:43.418Z,31.53
2018-11-23T14:22:11.421Z,32.20
2018-11-23T14:24:39.408Z,32.67
2018-11-23T14:27:07.405Z,31.10
2018-11-23T14:29:35.372Z,33.30
2018-11-23T14:32:03.418Z,33.37
2018-11-23T14:34:31.388Z,34.80
2018-11-23T14:36:59.380Z,32.10
2018-11-23T14:39:27.436Z,32.17
2018-11-23T14:41:55.442Z,32.10
2018-11-23T14:44:23.487Z,30.83
2018-11-23T14:46:51.517Z,30.80
2018-11-23T14:49:19.538Z,32.30
2018-11-23T14:51:47.578Z,32.13
2018-11-23T14:54:15.640Z,30.23
2018-11-23T14:56:43.638Z,31.87
2018-11-23T14:59:11.660Z,32.20
2018-11-23T15:01:39.634Z,33.10
2018-11-23T15:04:07.688Z,33.67
2018-11-23T15:06:35.685Z,31.40
2018-11-23T15:09:04.864Z,33.30
2018-11-23T15:11:32.868Z,31.90
2018-11-23T15:14:00.848Z,32.97
2018-11-23T15:16:28.832Z,32.87
2018-11-23T15:18:56.799Z,33.57
2018-11-23T15:21:24.790Z,34.53
2018-11-23T15:23:52.915Z,32.60
2018-11-23T15:26:20.884Z,32.13
2018-11-23T15:28:49.012Z,34.67
2018-11-23T15:31:16.987Z,32.93
2018-11-23T15:33:44.976Z,31.70
2018-11-23T15:36:12.977Z,33.45
2018-11-23T15:38:41.030Z,31.70
2018-11-23T15:41:08.998Z,31.40
2018-11-23T15:43:37.011Z,32.25
2018-11-23T15:46:05.594Z,31.10
2018-11-23T15:48:33.619Z,32.30
2018-11-23T15:51:07.013Z,30.87
2018-11-23T15:53:35.685Z,32.03
2018-11-23T15:56:03.682Z,34.33
2018-11-23T15:58:31.662Z,31.73
2018-11-23T16:00:59.640Z,31.70
2018-11-23T16:03:27.682Z,31.25
2018-11-23T16:05:55.671Z,31.33
2018-11-23T16:08:23.669Z,32.17
2018-11-23T16:10:51.669Z,31.35
2018-11-23T16:13:19.665Z,32.28
2018-11-23T16:15:47.713Z,32.95
2018-11-23T16:18:15.729Z,32.28
2018-11-23T16:20:44.981Z,31.97
2018-11-23T16:23:14.418Z,30.82
2018-11-23T16:25:43.036Z,31.55
2018-11-23T16:28:11.634Z,33.30
2018-11-23T16:30:41.907Z,33.08
2018-11-23T16:33:11.513Z,32.85
2018-11-23T16:35:40.430Z,32.38
2018-11-23T16:38:10.448Z,31.48
2018-11-23T16:40:40.009Z,32.73
2018-11-23T16:43:09.342Z,32.60
2018-11-23T16:45:37.894Z,32.63
2018-11-23T16:48:06.972Z,31.77
2018-11-23T16:50:35.046Z,32.25
2018-11-23T16:53:03.464Z,32.50
2018-11-23T16:55:31.595Z,32.03
2018-11-23T16:58:02.890Z,33.35
2018-11-23T17:00:32.177Z,32.42
2018-11-23T17:03:01.556Z,32.95
2018-11-23T17:05:31.341Z,30.72
2018-11-23T17:07:59.346Z,31.90
2018-11-23T17:10:27.356Z,32.95
2018-11-23T17:12:55.344Z,31.42
2018-11-23T17:15:24.854Z,32.83
2018-11-23T17:17:52.887Z,32.95
2018-11-23T17:20:22.402Z,33.70
2018-11-23T17:22:51.337Z,33.20
2018-11-23T17:25:20.734Z,34.03
2018-11-23T17:27:49.121Z,33.55
2018-11-23T17:30:19.613Z,31.02
2018-11-23T17:32:47.714Z,32.35
2018-11-23T17:35:15.713Z,33.42
2018-11-23T17:37:43.737Z,33.10
2018-11-23T17:40:13.440Z,33.45
2018-11-23T17:42:41.478Z,31.82
2018-11-23T17:45:12.205Z,33.35
2018-11-23T17:47:40.538Z,34.13
2018-11-23T17:50:12.122Z,32.58
2018-11-23T17:52:40.123Z,33.30
2018-11-23T17:55:09.083Z,34.23
2018-11-23T17:57:37.433Z,31.65
2018-11-23T18:00:08.938Z,34.58
2018-11-23T18:02:36.905Z,33.92
2018-11-23T18:05:07.533Z,34.70
2018-11-23T18:07:34.427Z,34.50
2018-11-23T18:10:02.433Z,34.67
2018-11-23T18:12:30.418Z,33.92
2018-11-23T18:14:58.433Z,33.05
2018-11-23T18:17:26.425Z,33.13
2018-11-23T18:19:54.413Z,33.85
2018-11-23T18:22:22.419Z,31.95
2018-11-23T18:24:50.438Z,32.73
2018-11-23T18:27:18.422Z,44.48
2018-11-23T18:29:46.434Z,37.25
2018-11-23T18:32:14.442Z,34.30
2018-11-23T18:34:42.463Z,34.38
2018-11-23T18:37:10.431Z,33.63
2018-11-23T18:39:38.430Z,32.80
2018-11-23T18:42:06.453Z,35.20
2018-11-23T18:44:34.499Z,34.30
2018-11-23T18:47:02.638Z,36.50
2018-11-23T18:49:31.022Z,34.30
2018-11-23T18:51:59.301Z,33.63
2018-11-23T18:54:27.265Z,35.10
2018-11-23T18:56:55.308Z,34.60
2018-11-23T18:59:23.286Z,35.52
2018-11-23T19:01:51.317Z,37.30
2018-11-23T19:04:19.291Z,35.63
2018-11-23T19:06:47.295Z,33.10
2018-11-23T19:09:15.290Z,34.78
2018-11-23T19:11:43.290Z,34.45
2018-11-23T19:14:11.258Z,36.53
2018-11-23T19:16:39.238Z,35.65
2018-11-23T19:19:07.230Z,35.43
2018-11-23T19:21:35.230Z,35.13
2018-11-23T19:24:03.280Z,36.65
2018-11-23T19:26:31.298Z,36.98
2018-11-23T19:28:59.277Z,37.23
2018-11-23T19:31:27.289Z,35.90
2018-11-23T19:33:59.227Z,36.60
2018-11-23T19:36:23.266Z,36.95
2018-11-23T19:38:51.257Z,37.60
2018-11-23T19:41:19.261Z,34.83
2018-11-23T19:43:47.278Z,36.28
2018-11-23T19:46:15.253Z,36.33
2018-11-23T19:48:43.282Z,35.70
2018-11-23T19:51:11.258Z,37.80
2018-11-23T19:53:39.246Z,36.40
2018-11-23T19:56:07.226Z,35.80
2018-11-23T19:58:35.238Z,33.13
2018-11-23T20:01:03.209Z,34.55
2018-11-23T20:03:31.252Z,36.45
2018-11-23T20:05:59.232Z,33.98
2018-11-23T20:08:27.195Z,34.08
2018-11-23T20:10:55.245Z,37.50
2018-11-23T20:13:23.237Z,35.90
2018-11-23T20:15:51.222Z,33.95
2018-11-23T20:18:19.254Z,34.60
2018-11-23T20:20:48.082Z,34.75
2018-11-23T20:23:16.195Z,35.00
2018-11-23T20:25:44.150Z,35.00
2018-11-23T20:28:12.142Z,36.63
2018-11-23T20:30:42.497Z,34.78
2018-11-23T20:33:08.125Z,34.92
2018-11-23T20:35:36.133Z,35.55
2018-11-23T20:38:04.187Z,35.52
2018-11-23T20:40:32.152Z,37.93
2018-11-23T20:43:00.182Z,38.02
2018-11-23T20:45:28.158Z,36.95
2018-11-23T20:47:56.216Z,35.85
2018-11-23T20:50:24.189Z,36.85
2018-11-23T20:52:52.261Z,34.83
2018-11-23T20:55:21.281Z,37.08
2018-11-23T20:57:49.305Z,38.50
2018-11-23T21:00:18.195Z,37.55
2018-11-23T21:02:46.985Z,40.12
2018-11-23T21:05:15.968Z,38.15
2018-11-23T21:07:43.981Z,39.10
2018-11-23T21:10:20.404Z,38.42
2018-11-23T21:12:43.202Z,38.55
2018-11-23T21:15:18.507Z,38.73
2018-11-23T21:17:46.486Z,38.50
2018-11-23T21:20:14.483Z,38.85
2018-11-23T21:22:42.474Z,37.28
2018-11-23T21:25:10.798Z,38.42
2018-11-23T21:27:38.792Z,38.90
2018-11-23T21:30:10.453Z,37.95
2018-11-23T21:32:38.430Z,38.42
2018-11-23T21:35:07.678Z,38.85
2018-11-23T21:37:35.829Z,37.88
2018-11-23T21:40:05.673Z,40.35
2018-11-23T21:42:33.666Z,37.42
2018-11-23T21:45:01.662Z,38.92
2018-11-23T21:47:29.630Z,37.33
2018-11-23T21:49:57.638Z,38.90
2018-11-23T21:52:25.604Z,37.40
2018-11-23T21:54:53.634Z,36.55
2018-11-23T21:57:21.636Z,37.25
2018-11-23T21:59:49.695Z,39.15
2018-11-23T22:02:17.664Z,39.23
2018-11-23T22:04:45.670Z,37.63
2018-11-23T22:07:13.657Z,39.27
2018-11-23T22:09:41.672Z,35.65
2018-11-23T22:12:09.644Z,37.50
2018-11-23T22:14:37.638Z,37.10
2018-11-23T22:17:06.091Z,39.58
2018-11-23T22:19:34.166Z,37.60
2018-11-23T22:22:02.122Z,37.75
2018-11-23T22:24:30.135Z,41.28
2018-11-23T22:26:58.100Z,39.78
2018-11-23T22:29:26.078Z,37.53
2018-11-23T22:31:54.275Z,36.50
2018-11-23T22:34:22.257Z,38.10
2018-11-23T22:36:50.267Z,37.73
2018-11-23T22:39:18.849Z,36.48
2018-11-23T22:41:46.906Z,38.05
2018-11-23T22:44:14.913Z,37.17
2018-11-23T22:46:43.415Z,36.33
2018-11-23T22:49:11.430Z,37.45
2018-11-23T22:51:39.446Z,36.83
2018-11-23T22:54:07.436Z,33.75
2018-11-23T22:56:35.433Z,37.30
2018-11-23T22:59:03.418Z,36.03
2018-11-23T23:01:31.413Z,37.85
2018-11-23T23:03:59.439Z,34.08
2018-11-23T23:06:27.442Z,37.30
2018-11-23T23:08:55.441Z,38.25
2018-11-23T23:11:23.429Z,36.77
2018-11-23T23:13:51.401Z,37.48
2018-11-23T23:16:19.398Z,36.30
2018-11-23T23:18:47.374Z,38.67
2018-11-23T23:21:15.366Z,38.75
2018-11-23T23:23:43.374Z,38.50
2018-11-23T23:26:11.366Z,39.48
2018-11-23T23:28:39.338Z,38.30
2018-11-23T23:31:07.346Z,38.83
2018-11-23T23:33:35.325Z,36.25
2018-11-23T23:36:03.340Z,35.73
2018-11-23T23:38:31.308Z,38.08
2018-11-23T23:40:59.329Z,37.73
2018-11-23T23:43:27.342Z,38.05
2018-11-23T23:45:55.446Z,38.50
2018-11-23T23:48:23.482Z,39.20
2018-11-23T23:50:51.561Z,37.20
2018-11-23T23:53:19.533Z,37.38
2018-11-23T23:55:47.521Z,36.03
2018-11-23T23:58:15.509Z,37.20
